ΕΜΥ, Εθνική Μετεωρολογική Υπηρεσία - Δελτία Καιρού, Προγνώσεις

ΑΕΡΟΝΑΥΤΙΛΙΑ

GREEK AIRPORTS CODES

LGMG 051200Z 30017G30KT 9000 -DZ FEW012 BKN025 12/10 Q1008 RMK OVC070=

EUROPEAN AIRPORTS CODES

EKCH 051620Z AUTO 14013KT 9999 NCD 11/01 Q1028 NOSIG=